createdAt,value
2023-03-03T00:00:55.355Z,83.60
2023-03-03T00:03:28.076Z,83.50
2023-03-03T00:05:58.992Z,85.08
2023-03-03T00:08:31.797Z,87.15
2023-03-03T00:11:01.307Z,87.73
2023-03-03T00:13:43.820Z,87.32
2023-03-03T00:16:24.831Z,86.25
2023-03-03T00:19:01.659Z,83.77
2023-03-03T00:21:36.694Z,82.97
2023-03-03T00:24:27.184Z,83.20
2023-03-03T00:26:58.504Z,84.29
2023-03-03T00:29:31.643Z,86.40
2023-03-03T00:32:08.297Z,85.15
2023-03-03T00:34:39.738Z,85.38
2023-03-03T00:37:24.814Z,83.57
2023-03-03T00:39:53.877Z,81.54
2023-03-03T00:42:25.888Z,80.76
2023-03-03T00:44:59.111Z,80.06
2023-03-03T00:47:39.998Z,79.66
2023-03-03T00:50:07.857Z,78.92
2023-03-03T00:52:41.091Z,78.50
2023-03-03T00:55:10.849Z,78.74
2023-03-03T00:57:41.593Z,78.54
2023-03-03T01:00:20.075Z,79.38
2023-03-03T01:02:50.158Z,79.61
2023-03-03T01:05:19.975Z,78.30
2023-03-03T01:07:50.104Z,78.92
2023-03-03T01:10:18.762Z,78.84
2023-03-03T01:12:46.382Z,78.27
2023-03-03T01:15:16.336Z,79.49
2023-03-03T01:20:32.496Z,78.15
2023-03-03T01:23:07.122Z,77.24
2023-03-03T01:25:35.450Z,76.46
2023-03-03T01:28:04.907Z,76.11
2023-03-03T01:30:34.626Z,75.95
2023-03-03T01:33:04.264Z,75.50
2023-03-03T01:35:33.283Z,75.56
2023-03-03T01:38:02.894Z,75.13
2023-03-03T01:40:33.022Z,74.24
2023-03-03T01:43:02.470Z,74.28
2023-03-03T01:45:33.158Z,74.40
2023-03-03T01:48:08.799Z,74.88
2023-03-03T01:50:42.517Z,74.76
2023-03-03T01:53:19.119Z,74.20
2023-03-03T01:55:51.742Z,74.32
2023-03-03T01:58:27.921Z,75.16
2023-03-03T02:01:05.845Z,75.43
2023-03-03T02:03:36.803Z,75.26
2023-03-03T02:06:09.734Z,74.93
2023-03-03T02:08:43.453Z,75.47
2023-03-03T02:11:13.857Z,74.66
2023-03-03T02:13:48.960Z,74.59
2023-03-03T02:16:19.306Z,74.25
2023-03-03T02:18:50.852Z,74.85
2023-03-03T02:21:28.831Z,75.01
2023-03-03T02:24:07.552Z,75.46
2023-03-03T02:26:40.122Z,74.99
2023-03-03T02:29:13.511Z,75.10
2023-03-03T02:31:44.720Z,76.08
2023-03-03T02:34:13.125Z,76.16
2023-03-03T02:36:45.263Z,75.48
2023-03-03T02:39:24.486Z,75.09
2023-03-03T02:42:10.043Z,74.72
2023-03-03T02:44:44.855Z,77.89
2023-03-03T02:47:13.086Z,76.73
2023-03-03T02:49:43.065Z,75.92
2023-03-03T02:52:11.995Z,76.01
2023-03-03T02:54:46.250Z,75.41
2023-03-03T02:57:15.202Z,75.60
2023-03-03T02:59:44.323Z,75.07
2023-03-03T03:02:18.355Z,75.05
2023-03-03T03:04:48.764Z,76.44
2023-03-03T03:07:25.908Z,75.90
2023-03-03T03:09:56.661Z,75.14
2023-03-03T03:12:26.157Z,74.94
2023-03-03T03:14:56.916Z,75.20
2023-03-03T03:17:26.044Z,74.50
2023-03-03T03:19:56.271Z,74.79
2023-03-03T03:22:26.637Z,75.59
2023-03-03T03:24:58.370Z,75.13
2023-03-03T03:27:26.261Z,74.98
2023-03-03T03:30:01.794Z,75.03
2023-03-03T03:32:34.340Z,78.08
2023-03-03T03:35:04.511Z,76.99
2023-03-03T03:37:33.974Z,76.45
2023-03-03T03:40:05.345Z,75.75
2023-03-03T03:42:34.789Z,75.55
2023-03-03T03:45:04.072Z,78.00
2023-03-03T03:47:33.161Z,78.33
2023-03-03T03:50:02.710Z,80.88
2023-03-03T03:52:31.973Z,79.71
2023-03-03T03:55:00.824Z,78.91
2023-03-03T03:57:33.734Z,80.20
2023-03-03T04:00:03.849Z,78.83
2023-03-03T04:02:54.020Z,80.44
2023-03-03T04:05:27.223Z,79.44
2023-03-03T04:08:00.243Z,77.57
2023-03-03T04:10:29.462Z,77.04
2023-03-03T04:13:01.304Z,76.79
2023-03-03T04:15:31.760Z,76.66
2023-03-03T04:18:01.632Z,77.92
2023-03-03T04:20:32.013Z,81.48
2023-03-03T04:23:00.286Z,81.41
2023-03-03T04:25:29.777Z,79.27
2023-03-03T04:27:57.751Z,77.74
2023-03-03T04:30:28.266Z,78.38
2023-03-03T04:32:59.553Z,78.04
2023-03-03T04:35:28.168Z,77.62
2023-03-03T04:38:00.918Z,77.30
2023-03-03T04:40:30.245Z,77.57
2023-03-03T04:43:00.941Z,77.86
2023-03-03T04:45:32.605Z,80.39
2023-03-03T04:48:02.026Z,79.33
2023-03-03T04:50:35.136Z,80.70
2023-03-03T04:53:07.955Z,79.84
2023-03-03T04:55:39.968Z,79.51
2023-03-03T04:58:11.890Z,78.23
2023-03-03T05:00:41.844Z,78.77
2023-03-03T05:03:13.820Z,78.42
2023-03-03T05:05:43.889Z,78.32
2023-03-03T05:08:14.363Z,77.92
2023-03-03T05:10:43.918Z,78.20
2023-03-03T05:13:16.081Z,77.79
2023-03-03T05:15:45.587Z,77.73
2023-03-03T05:18:14.894Z,77.63
2023-03-03T05:20:44.132Z,77.53
2023-03-03T05:23:14.120Z,76.93
2023-03-03T05:25:43.522Z,78.94
2023-03-03T05:28:14.256Z,78.36
2023-03-03T05:30:41.383Z,77.09
2023-03-03T05:33:09.152Z,77.41
2023-03-03T05:35:42.318Z,77.19
2023-03-03T05:38:12.502Z,76.89
2023-03-03T05:40:42.804Z,76.68
2023-03-03T05:43:14.436Z,76.61
2023-03-03T05:45:43.521Z,76.93
2023-03-03T05:48:13.845Z,78.59
2023-03-03T05:50:44.344Z,77.92
2023-03-03T05:53:15.969Z,80.29
2023-03-03T05:55:54.304Z,81.20
2023-03-03T05:58:24.373Z,78.73
2023-03-03T06:00:54.410Z,78.61
2023-03-03T06:03:24.582Z,79.16
2023-03-03T06:05:58.759Z,79.43
2023-03-03T06:08:39.923Z,78.38
2023-03-03T06:11:13.727Z,78.97
2023-03-03T06:13:45.318Z,78.16
2023-03-03T06:16:15.444Z,77.45
2023-03-03T06:18:47.201Z,77.81
2023-03-03T06:21:20.492Z,78.22
2023-03-03T06:23:50.452Z,80.38
2023-03-03T06:26:25.765Z,79.79
2023-03-03T06:28:55.800Z,79.12
2023-03-03T06:31:30.500Z,79.03
2023-03-03T06:34:00.609Z,78.48
2023-03-03T06:36:29.926Z,78.71
2023-03-03T06:38:59.333Z,78.17
2023-03-03T06:41:28.203Z,77.87
2023-03-03T06:43:58.782Z,77.73
2023-03-03T06:46:28.410Z,77.19
2023-03-03T06:48:57.658Z,79.14
2023-03-03T06:51:29.101Z,78.81
2023-03-03T06:54:00.350Z,77.75
2023-03-03T06:56:38.097Z,77.54
2023-03-03T06:59:19.016Z,81.31
2023-03-03T07:01:51.619Z,79.39
2023-03-03T07:04:35.699Z,78.98
2023-03-03T07:07:34.614Z,79.10
2023-03-03T07:10:22.491Z,80.65
2023-03-03T07:15:38.514Z,82.41
2023-03-03T07:18:32.779Z,81.56
2023-03-03T07:21:14.188Z,80.34
2023-03-03T07:23:45.283Z,80.56
2023-03-03T07:26:30.298Z,80.12
2023-03-03T07:29:11.172Z,78.39
2023-03-03T07:31:40.285Z,77.75
2023-03-03T07:34:22.714Z,77.72
2023-03-03T07:36:55.130Z,77.51
2023-03-03T07:39:40.285Z,76.60
2023-03-03T07:42:24.262Z,77.00
2023-03-03T07:45:06.499Z,79.09
2023-03-03T07:47:38.988Z,78.24
2023-03-03T07:50:20.965Z,77.37
2023-03-03T07:52:57.467Z,77.02
2023-03-03T07:55:31.860Z,76.82
2023-03-03T07:58:22.378Z,76.73
2023-03-03T08:01:27.423Z,77.06
2023-03-03T08:04:00.928Z,77.88
2023-03-03T08:06:37.009Z,78.31
2023-03-03T08:09:10.361Z,78.42
2023-03-03T08:11:59.336Z,78.63
2023-03-03T08:14:29.053Z,79.68
2023-03-03T08:16:59.794Z,78.56
2023-03-03T08:19:31.184Z,79.49
2023-03-03T08:22:10.072Z,78.79
2023-03-03T08:24:39.048Z,77.74
2023-03-03T08:27:08.337Z,78.03
2023-03-03T08:29:37.820Z,78.26
2023-03-03T08:32:05.400Z,78.42
2023-03-03T08:34:32.758Z,78.19
2023-03-03T08:36:59.898Z,77.62
2023-03-03T08:39:26.917Z,77.45
2023-03-03T08:41:54.151Z,76.97
2023-03-03T08:44:21.271Z,76.87
2023-03-03T08:46:50.273Z,77.03
2023-03-03T08:49:19.252Z,76.86
2023-03-03T08:51:47.048Z,77.15
2023-03-03T08:54:14.189Z,77.92
2023-03-03T08:56:41.353Z,77.45
2023-03-03T08:59:08.496Z,77.99
2023-03-03T09:01:39.595Z,77.78
2023-03-03T09:04:06.863Z,76.93
2023-03-03T09:06:34.026Z,78.79
2023-03-03T09:09:03.802Z,78.65
2023-03-03T09:11:32.782Z,79.16
2023-03-03T09:14:07.972Z,77.01
2023-03-03T09:16:40.506Z,75.93
2023-03-03T09:19:29.947Z,76.53
2023-03-03T09:22:19.092Z,77.58
2023-03-03T09:24:48.959Z,77.40
2023-03-03T09:27:39.234Z,76.54
2023-03-03T09:31:01.688Z,76.74
2023-03-03T09:33:35.835Z,76.54
2023-03-03T09:36:24.302Z,75.50
2023-03-03T09:38:53.357Z,77.11
2023-03-03T09:41:41.953Z,75.47
2023-03-03T09:44:17.927Z,75.30
2023-03-03T09:46:54.671Z,75.40
2023-03-03T09:49:28.876Z,74.83
2023-03-03T09:52:19.971Z,74.01
2023-03-03T09:55:14.910Z,73.57
2023-03-03T09:58:08.151Z,76.60
2023-03-03T10:00:55.052Z,76.25
2023-03-03T10:04:01.140Z,78.34
2023-03-03T10:07:15.697Z,76.14
2023-03-03T10:09:57.700Z,75.08
2023-03-03T10:12:51.622Z,74.14
2023-03-03T10:15:34.185Z,73.39
2023-03-03T10:18:13.767Z,73.26
2023-03-03T10:21:03.451Z,73.35
2023-03-03T10:24:27.583Z,73.64
2023-03-03T10:27:21.162Z,73.53
2023-03-03T10:30:39.842Z,73.30
2023-03-03T10:33:46.112Z,74.26
2023-03-03T10:36:26.006Z,73.56
2023-03-03T10:39:13.525Z,73.17
2023-03-03T10:41:51.211Z,73.14
2023-03-03T10:44:33.933Z,74.75
2023-03-03T10:47:08.432Z,74.49
2023-03-03T10:50:12.617Z,72.97
2023-03-03T10:53:17.278Z,73.07
2023-03-03T10:56:01.320Z,72.61
2023-03-03T10:58:56.216Z,73.08
2023-03-03T11:01:48.863Z,72.36
2023-03-03T11:04:26.356Z,72.85
2023-03-03T11:07:20.721Z,72.61
2023-03-03T11:10:02.417Z,74.06
2023-03-03T11:12:48.517Z,74.04
2023-03-03T11:15:32.067Z,73.74
2023-03-03T11:18:29.487Z,73.94
2023-03-03T11:21:09.544Z,74.10
2023-03-03T11:23:48.927Z,73.16
2023-03-03T11:26:30.612Z,73.38
2023-03-03T11:29:10.864Z,73.96
2023-03-03T11:31:44.989Z,72.30
2023-03-03T11:34:16.284Z,72.77
2023-03-03T11:36:51.391Z,72.58
2023-03-03T11:39:22.263Z,73.43
2023-03-03T11:42:04.740Z,74.67
2023-03-03T11:44:57.411Z,75.00
2023-03-03T11:47:51.584Z,74.26
2023-03-03T11:50:27.635Z,73.72
2023-03-03T11:53:17.241Z,71.93
2023-03-03T11:55:46.664Z,72.70
2023-03-03T11:58:32.400Z,72.21
2023-03-03T12:01:23.457Z,72.39
2023-03-03T12:03:57.777Z,71.36
2023-03-03T12:06:47.670Z,71.54
2023-03-03T12:09:57.866Z,72.59
2023-03-03T12:12:45.269Z,72.35
2023-03-03T12:15:16.430Z,72.66
2023-03-03T12:18:11.877Z,73.16
2023-03-03T12:21:11.536Z,72.26
2023-03-03T12:24:13.124Z,71.56
2023-03-03T12:27:03.257Z,72.28
2023-03-03T12:29:51.713Z,71.66
2023-03-03T12:32:23.619Z,71.89
2023-03-03T12:34:58.008Z,71.14
2023-03-03T12:37:49.486Z,70.63
2023-03-03T12:40:21.406Z,71.38
2023-03-03T12:43:24.426Z,72.70
2023-03-03T12:46:28.569Z,74.26
2023-03-03T12:48:59.609Z,72.60
2023-03-03T12:51:38.855Z,70.29
2023-03-03T12:54:26.577Z,69.74
2023-03-03T12:56:58.011Z,70.48
2023-03-03T13:00:17.693Z,71.92
2023-03-03T13:03:07.079Z,70.58
2023-03-03T13:05:40.258Z,74.49
2023-03-03T13:08:31.830Z,72.75
2023-03-03T13:11:32.196Z,71.58
2023-03-03T13:14:27.052Z,71.77
2023-03-03T13:17:13.837Z,71.31
2023-03-03T13:19:58.786Z,70.52
2023-03-03T13:22:39.651Z,69.77
2023-03-03T13:25:20.626Z,71.28
2023-03-03T13:27:52.574Z,71.03
2023-03-03T13:30:33.880Z,70.24
2023-03-03T13:33:18.841Z,69.39
2023-03-03T13:36:13.256Z,70.46
2023-03-03T13:38:57.546Z,69.67
2023-03-03T13:41:49.252Z,69.40
2023-03-03T13:44:49.579Z,69.81
2023-03-03T13:47:57.897Z,70.25
2023-03-03T13:50:51.485Z,70.16
2023-03-03T13:53:46.247Z,69.42
2023-03-03T13:56:24.857Z,69.47
2023-03-03T13:59:04.877Z,68.99
2023-03-03T14:01:58.617Z,70.73
2023-03-03T14:04:35.251Z,70.29
2023-03-03T14:07:12.022Z,69.32
2023-03-03T14:10:09.566Z,69.08
2023-03-03T14:13:00.447Z,69.21
2023-03-03T14:15:41.283Z,69.35
2023-03-03T14:18:23.919Z,68.75
2023-03-03T14:20:52.913Z,69.59
2023-03-03T14:23:57.585Z,68.35
2023-03-03T14:26:30.686Z,68.19
2023-03-03T14:29:24.939Z,67.59
2023-03-03T14:31:56.140Z,69.56
2023-03-03T14:34:24.784Z,68.99
2023-03-03T14:36:54.285Z,71.16
2023-03-03T14:39:39.789Z,70.62
2023-03-03T14:42:32.497Z,70.32
2023-03-03T14:45:05.379Z,70.88
2023-03-03T14:47:36.020Z,69.59
2023-03-03T14:50:40.595Z,69.42
2023-03-03T14:53:14.097Z,70.09
2023-03-03T14:55:44.995Z,69.28
2023-03-03T14:58:39.650Z,68.64
2023-03-03T15:01:15.002Z,68.26
2023-03-03T15:03:50.547Z,69.54
2023-03-03T15:06:46.411Z,68.39
2023-03-03T15:09:31.758Z,68.49
2023-03-03T15:12:07.174Z,68.38
2023-03-03T15:14:45.061Z,68.53
2023-03-03T15:17:20.800Z,68.61
2023-03-03T15:19:56.401Z,67.91
2023-03-03T15:22:51.334Z,67.18
2023-03-03T15:25:43.491Z,67.70
2023-03-03T15:28:37.470Z,67.53
2023-03-03T15:32:10.675Z,66.73
2023-03-03T15:34:47.643Z,66.53
2023-03-03T15:37:28.918Z,66.78
2023-03-03T15:40:07.452Z,66.88
2023-03-03T15:42:51.889Z,67.73
2023-03-03T15:45:57.392Z,66.83
2023-03-03T15:48:51.962Z,66.75
2023-03-03T15:51:50.821Z,66.67
2023-03-03T15:54:44.456Z,65.52
2023-03-03T15:57:35.163Z,65.76
2023-03-03T16:00:35.623Z,65.83
2023-03-03T16:03:14.039Z,66.16
2023-03-03T16:05:51.477Z,66.43
2023-03-03T16:08:35.693Z,66.25
2023-03-03T16:11:29.615Z,65.76
2023-03-03T16:14:34.729Z,65.59
2023-03-03T16:17:22.945Z,66.01
2023-03-03T16:20:00.445Z,65.65
2023-03-03T16:22:57.990Z,65.71
2023-03-03T16:25:56.443Z,66.02
2023-03-03T16:28:29.171Z,66.13
2023-03-03T16:31:13.504Z,66.00
2023-03-03T16:34:17.730Z,65.26
2023-03-03T16:37:08.264Z,66.28
2023-03-03T16:39:42.998Z,66.51
2023-03-03T16:42:31.093Z,65.51
2023-03-03T16:45:11.726Z,66.04
2023-03-03T16:48:00.721Z,66.53
2023-03-03T16:50:56.409Z,66.32
2023-03-03T16:53:46.107Z,66.64
2023-03-03T16:56:29.880Z,66.52
2023-03-03T16:59:33.436Z,66.50
2023-03-03T17:02:41.172Z,66.56
2023-03-03T17:05:47.368Z,66.99
2023-03-03T17:08:49.404Z,66.78
2023-03-03T17:11:53.203Z,67.03
2023-03-03T17:14:35.144Z,66.97
2023-03-03T17:17:29.970Z,67.17
2023-03-03T17:20:24.798Z,67.24
2023-03-03T17:23:01.290Z,67.15
2023-03-03T17:25:47.236Z,67.23
2023-03-03T17:28:40.132Z,67.26
2023-03-03T17:31:17.639Z,67.11
2023-03-03T17:34:09.841Z,66.98
2023-03-03T17:36:51.733Z,67.08
2023-03-03T17:39:38.093Z,67.43
2023-03-03T17:42:24.455Z,68.15
2023-03-03T17:45:13.528Z,68.58
2023-03-03T17:48:18.643Z,68.33
2023-03-03T17:51:15.763Z,69.04
2023-03-03T17:54:10.492Z,68.71
2023-03-03T17:57:24.276Z,68.58
2023-03-03T17:59:58.841Z,68.76
2023-03-03T18:02:52.250Z,68.80
2023-03-03T18:05:39.878Z,68.90
2023-03-03T18:08:23.398Z,68.92
2023-03-03T18:11:15.430Z,69.54
2023-03-03T18:14:16.133Z,69.61
2023-03-03T18:16:58.560Z,69.71
2023-03-03T18:20:03.064Z,69.07
2023-03-03T18:22:32.756Z,69.35
2023-03-03T18:25:09.679Z,68.88
2023-03-03T18:27:40.288Z,69.69
2023-03-03T18:30:24.994Z,70.02
2023-03-03T18:32:59.384Z,69.48
2023-03-03T18:35:46.695Z,70.01
2023-03-03T18:38:17.607Z,69.98
2023-03-03T18:41:14.498Z,70.06
2023-03-03T18:43:52.318Z,69.58
2023-03-03T18:46:27.482Z,69.63
2023-03-03T18:49:10.883Z,70.30
2023-03-03T18:51:41.054Z,69.73
2023-03-03T18:54:30.572Z,69.72
2023-03-03T18:56:58.332Z,70.38
2023-03-03T18:59:35.910Z,70.62
2023-03-03T19:02:39.890Z,70.86
2023-03-03T19:05:27.626Z,70.01
2023-03-03T19:08:03.536Z,70.18
2023-03-03T19:10:40.426Z,70.22
2023-03-03T19:13:34.978Z,69.86
2023-03-03T19:16:08.590Z,70.28
2023-03-03T19:18:43.306Z,70.66
2023-03-03T19:21:28.910Z,71.40
2023-03-03T19:24:03.804Z,70.47
2023-03-03T19:26:46.960Z,70.36
2023-03-03T19:29:22.733Z,70.13
2023-03-03T19:32:09.341Z,70.04
2023-03-03T19:34:44.321Z,70.10
2023-03-03T19:37:53.917Z,69.95
2023-03-03T19:40:41.613Z,70.39
2023-03-03T19:43:45.810Z,70.46
2023-03-03T19:46:26.892Z,70.17
2023-03-03T19:49:03.430Z,70.11
2023-03-03T19:51:36.156Z,70.42
2023-03-03T19:54:13.217Z,70.70
2023-03-03T19:56:47.194Z,70.30
2023-03-03T19:59:48.675Z,70.42
2023-03-03T20:02:57.012Z,70.23
2023-03-03T20:05:46.441Z,69.82
2023-03-03T20:08:45.398Z,69.86
2023-03-03T20:11:48.964Z,69.30
2023-03-03T20:14:27.143Z,70.06
2023-03-03T20:16:58.224Z,69.72
2023-03-03T20:19:29.466Z,70.25
2023-03-03T20:22:26.270Z,69.29
2023-03-03T20:25:14.259Z,69.32
2023-03-03T20:27:58.103Z,69.28
2023-03-03T20:30:32.556Z,69.37
2023-03-03T20:33:17.047Z,70.39
2023-03-03T20:35:50.678Z,70.11
2023-03-03T20:38:32.281Z,70.04
2023-03-03T20:41:18.362Z,69.82
2023-03-03T20:44:05.996Z,69.58
2023-03-03T20:47:03.888Z,69.40
2023-03-03T20:50:16.131Z,69.21
2023-03-03T20:52:52.094Z,68.80
2023-03-03T20:55:35.068Z,70.06
2023-03-03T20:58:11.145Z,69.43
2023-03-03T21:00:50.625Z,69.50
2023-03-03T21:03:38.847Z,69.08
2023-03-03T21:06:18.182Z,68.94
2023-03-03T21:08:50.103Z,68.48
2023-03-03T21:11:19.982Z,68.85
2023-03-03T21:13:54.351Z,69.10
2023-03-03T21:16:22.098Z,68.12
2023-03-03T21:19:15.431Z,68.18
2023-03-03T21:21:47.408Z,67.83
2023-03-03T21:24:19.778Z,68.44
2023-03-03T21:26:59.550Z,67.71
2023-03-03T21:29:33.956Z,67.63
2023-03-03T21:32:09.196Z,68.08
2023-03-03T21:34:38.585Z,68.41
2023-03-03T21:37:11.527Z,68.13
2023-03-03T21:39:44.163Z,67.93
2023-03-03T21:42:14.684Z,69.86
2023-03-03T21:44:49.203Z,69.32
2023-03-03T21:47:20.929Z,69.14
2023-03-03T21:49:51.680Z,69.40
2023-03-03T21:52:21.134Z,68.24
2023-03-03T21:54:51.047Z,68.13
2023-03-03T21:57:20.173Z,67.84
2023-03-03T21:59:51.257Z,68.94
2023-03-03T22:02:18.394Z,68.62
2023-03-03T22:04:45.760Z,68.73
2023-03-03T22:07:14.088Z,69.42
2023-03-03T22:09:41.188Z,69.09
2023-03-03T22:12:09.371Z,68.91
2023-03-03T22:14:36.785Z,68.45
2023-03-03T22:17:04.019Z,68.14
2023-03-03T22:19:31.477Z,68.78
2023-03-03T22:21:58.529Z,68.67
2023-03-03T22:24:25.472Z,69.02
2023-03-03T22:26:52.606Z,68.75
2023-03-03T22:29:23.157Z,68.45
2023-03-03T22:31:51.793Z,68.14
2023-03-03T22:34:19.192Z,68.59
2023-03-03T22:36:46.185Z,68.72
2023-03-03T22:39:13.247Z,68.53
2023-03-03T22:41:40.424Z,69.94
2023-03-03T22:44:07.535Z,70.62
2023-03-03T22:46:34.627Z,69.94
2023-03-03T22:49:01.844Z,69.81
2023-03-03T22:51:28.870Z,69.67
2023-03-03T22:53:55.973Z,69.63
2023-03-03T22:56:24.359Z,69.29
2023-03-03T22:58:52.646Z,69.44
2023-03-03T23:01:21.663Z,69.46
2023-03-03T23:03:50.375Z,68.40
2023-03-03T23:06:18.468Z,69.62
2023-03-03T23:08:47.205Z,69.01
2023-03-03T23:11:15.495Z,69.33
2023-03-03T23:13:43.563Z,69.61
2023-03-03T23:16:12.677Z,69.36
2023-03-03T23:18:41.580Z,69.25
2023-03-03T23:21:10.587Z,69.35
2023-03-03T23:23:38.533Z,69.27
2023-03-03T23:26:06.093Z,69.07
2023-03-03T23:28:34.815Z,69.26
2023-03-03T23:31:04.142Z,69.48
2023-03-03T23:33:32.542Z,69.67
2023-03-03T23:36:01.759Z,69.61
2023-03-03T23:38:30.707Z,69.65
2023-03-03T23:41:00.341Z,69.71
2023-03-03T23:43:27.870Z,70.29
2023-03-03T23:45:55.065Z,70.47
2023-03-03T23:48:23.421Z,71.15
2023-03-03T23:50:51.469Z,70.88
2023-03-03T23:53:20.078Z,71.61
2023-03-03T23:55:47.185Z,70.99
2023-03-03T23:58:14.194Z,71.33
